createdAt,value
2018-05-25T00:00:44.705Z,101777.41
2018-05-25T00:03:12.210Z,101777.97
2018-05-25T00:05:39.775Z,101771.71
2018-05-25T00:08:07.249Z,101775.52
2018-05-25T00:10:34.763Z,101774.28
2018-05-25T00:13:02.264Z,101782.41
2018-05-25T00:15:29.779Z,101771.50
2018-05-25T00:17:57.258Z,101782.80
2018-05-25T00:20:24.800Z,101778.39
2018-05-25T00:22:52.289Z,101776.86
2018-05-25T00:25:19.770Z,101782.09
2018-05-25T00:27:47.267Z,101781.63
2018-05-25T00:30:14.892Z,101779.84
2018-05-25T00:32:42.401Z,101770.89
2018-05-25T00:35:09.877Z,101778.69
2018-05-25T00:37:37.477Z,101784.48
2018-05-25T00:40:05.000Z,101775.28
2018-05-25T00:42:32.521Z,101779.33
2018-05-25T00:45:00.036Z,101777.47
2018-05-25T00:47:27.548Z,101766.65
2018-05-25T00:49:55.064Z,101774.67
2018-05-25T00:52:22.570Z,101766.67
2018-05-25T00:55:01.930Z,101772.61
2018-05-25T00:57:29.431Z,101769.66
2018-05-25T00:59:56.932Z,101774.27
2018-05-25T01:02:24.400Z,101777.22
2018-05-25T01:04:51.903Z,101778.83
2018-05-25T01:07:19.401Z,101775.80
2018-05-25T01:09:46.909Z,101777.32
2018-05-25T01:12:14.425Z,101774.17
2018-05-25T01:14:41.939Z,101775.89
2018-05-25T01:17:09.420Z,101776.87
2018-05-25T01:19:36.909Z,101778.22
2018-05-25T01:22:04.410Z,101771.84
2018-05-25T01:24:31.903Z,101774.89
2018-05-25T01:26:59.445Z,101778.42
2018-05-25T01:29:26.999Z,101776.91
2018-05-25T01:31:54.529Z,101778.78
2018-05-25T01:34:22.012Z,101769.46
2018-05-25T01:36:49.541Z,101784.10
2018-05-25T01:39:17.046Z,101773.68
2018-05-25T01:41:44.571Z,101775.64
2018-05-25T01:44:12.063Z,101780.95
2018-05-25T01:46:39.572Z,101774.53
2018-05-25T01:49:07.113Z,101776.05
2018-05-25T01:51:34.581Z,101771.74
2018-05-25T01:54:02.081Z,101767.80
2018-05-25T01:56:29.597Z,101770.92
2018-05-25T01:58:57.102Z,101766.63
2018-05-25T02:01:24.591Z,101760.84
2018-05-25T02:03:52.203Z,101762.48
2018-05-25T02:06:19.706Z,101760.41
2018-05-25T02:08:47.224Z,101763.19
2018-05-25T02:11:14.767Z,101764.48
2018-05-25T02:13:42.746Z,101765.90
2018-05-25T02:16:10.263Z,101766.34
2018-05-25T02:18:37.803Z,101768.83
2018-05-25T02:21:05.365Z,101767.08
2018-05-25T02:23:32.860Z,101764.71
2018-05-25T02:26:00.382Z,101766.41
2018-05-25T02:28:27.867Z,101757.88
2018-05-25T02:30:55.373Z,101761.09
2018-05-25T02:33:22.877Z,101757.80
2018-05-25T02:35:50.352Z,101762.11
2018-05-25T02:38:17.867Z,101752.20
2018-05-25T02:40:45.410Z,101756.73
2018-05-25T02:43:12.994Z,101752.88
2018-05-25T02:45:40.501Z,101754.05
2018-05-25T02:48:07.969Z,101758.94
2018-05-25T02:50:35.492Z,101763.86
2018-05-25T02:53:03.039Z,101761.95
2018-05-25T02:55:30.579Z,101760.81
2018-05-25T02:57:58.072Z,101756.91
2018-05-25T03:00:25.568Z,101752.35
2018-05-25T03:02:53.079Z,101753.11
2018-05-25T03:05:20.608Z,101751.28
2018-05-25T03:07:48.136Z,101748.50
2018-05-25T03:10:15.620Z,101754.19
2018-05-25T03:12:43.139Z,101754.00
2018-05-25T03:15:10.636Z,101759.45
2018-05-25T03:17:38.744Z,101756.09
2018-05-25T03:20:06.227Z,101758.05
2018-05-25T03:22:33.718Z,101762.14
2018-05-25T03:25:01.183Z,101758.29
2018-05-25T03:27:28.726Z,101759.89
2018-05-25T03:29:56.251Z,101765.51
2018-05-25T03:32:24.334Z,101762.72
2018-05-25T03:34:51.833Z,101762.24
2018-05-25T03:37:19.335Z,101760.89
2018-05-25T03:39:47.040Z,101751.48
2018-05-25T03:42:14.512Z,101757.95
2018-05-25T03:44:42.022Z,101758.30
2018-05-25T03:47:09.536Z,101756.05
2018-05-25T03:49:37.134Z,101757.30
2018-05-25T03:52:04.643Z,101750.62
2018-05-25T03:54:32.114Z,101750.51
2018-05-25T03:56:59.615Z,101761.36
2018-05-25T03:59:38.869Z,101761.10
2018-05-25T04:02:06.365Z,101757.28
2018-05-25T04:04:34.474Z,101758.54
2018-05-25T04:07:01.970Z,101762.59
2018-05-25T04:09:29.443Z,101756.88
2018-05-25T04:11:56.982Z,101756.72
2018-05-25T04:14:24.633Z,101759.60
2018-05-25T04:16:52.145Z,101759.52
2018-05-25T04:19:19.640Z,101760.33
2018-05-25T04:21:47.191Z,101755.98
2018-05-25T04:24:14.696Z,101757.01
2018-05-25T04:26:42.228Z,101754.05
2018-05-25T04:29:09.707Z,101756.43
2018-05-25T04:31:37.215Z,101754.38
2018-05-25T04:34:04.747Z,101760.84
2018-05-25T04:36:32.266Z,101753.00
2018-05-25T04:38:59.842Z,101753.10
2018-05-25T04:41:27.321Z,101757.08
2018-05-25T04:43:54.858Z,101751.34
2018-05-25T04:46:22.381Z,101749.48
2018-05-25T04:48:50.276Z,101751.00
2018-05-25T04:51:17.744Z,101753.54
2018-05-25T04:53:45.299Z,101761.02
2018-05-25T04:56:12.901Z,101750.56
2018-05-25T04:58:40.405Z,101754.48
2018-05-25T05:01:07.911Z,101753.16
2018-05-25T05:03:35.412Z,101756.38
2018-05-25T05:06:02.919Z,101760.81
2018-05-25T05:08:30.469Z,101758.85
2018-05-25T05:10:57.945Z,101760.27
2018-05-25T05:13:25.470Z,101758.30
2018-05-25T05:15:53.020Z,101755.51
2018-05-25T05:18:20.541Z,101765.23
2018-05-25T05:20:48.054Z,101763.39
2018-05-25T05:23:15.578Z,101758.82
2018-05-25T05:25:43.167Z,101758.67
2018-05-25T05:28:10.634Z,101751.69
2018-05-25T05:30:38.183Z,101754.04
2018-05-25T05:33:05.679Z,101753.64
2018-05-25T05:35:33.187Z,101748.11
2018-05-25T05:38:00.710Z,101746.28
2018-05-25T05:40:28.212Z,101750.94
2018-05-25T05:42:55.706Z,101755.27
2018-05-25T05:45:23.208Z,101760.08
2018-05-25T05:47:50.700Z,101762.06
2018-05-25T05:50:18.933Z,101771.11
2018-05-25T05:52:46.485Z,101769.22
2018-05-25T05:55:13.994Z,101769.08
2018-05-25T05:57:41.533Z,101761.95
2018-05-25T06:00:10.817Z,101765.50
2018-05-25T06:02:38.374Z,101760.98
2018-05-25T06:05:05.924Z,101768.47
2018-05-25T06:07:33.480Z,101762.38
2018-05-25T06:10:01.090Z,101771.36
2018-05-25T06:12:28.808Z,101761.48
2018-05-25T06:14:56.411Z,101769.39
2018-05-25T06:17:23.955Z,101775.83
2018-05-25T06:19:51.468Z,101776.62
2018-05-25T06:22:19.013Z,101779.11
2018-05-25T06:24:46.509Z,101777.06
2018-05-25T06:27:14.088Z,101775.05
2018-05-25T06:29:41.593Z,101780.69
2018-05-25T06:32:09.143Z,101777.07
2018-05-25T06:34:36.739Z,101782.16
2018-05-25T06:37:04.222Z,101779.66
2018-05-25T06:39:31.813Z,101781.05
2018-05-25T06:41:59.413Z,101780.09
2018-05-25T06:44:27.048Z,101786.23
2018-05-25T06:46:54.677Z,101783.36
2018-05-25T06:49:22.267Z,101785.73
2018-05-25T06:51:49.810Z,101786.64
2018-05-25T06:54:17.521Z,101788.16
2018-05-25T06:56:45.087Z,101787.80
2018-05-25T06:59:12.635Z,101784.10
2018-05-25T07:01:40.390Z,101786.19
2018-05-25T07:04:07.909Z,101786.98
2018-05-25T07:06:35.449Z,101787.55
2018-05-25T07:09:03.039Z,101790.28
2018-05-25T07:11:30.575Z,101781.12
2018-05-25T07:13:58.062Z,101782.82
2018-05-25T07:16:25.609Z,101782.91
2018-05-25T07:18:53.211Z,101785.40
2018-05-25T07:21:20.738Z,101787.56
2018-05-25T07:23:48.263Z,101789.48
2018-05-25T07:26:15.779Z,101787.85
2018-05-25T07:28:43.312Z,101782.81
2018-05-25T07:31:10.804Z,101786.73
2018-05-25T07:33:38.289Z,101792.61
2018-05-25T07:36:05.829Z,101792.99
2018-05-25T07:38:33.474Z,101783.68
2018-05-25T07:41:01.005Z,101788.65
2018-05-25T07:43:28.495Z,101791.45
2018-05-25T07:45:56.188Z,101783.43
2018-05-25T07:48:24.639Z,101784.17
2018-05-25T07:50:52.131Z,101781.97
2018-05-25T07:53:19.640Z,101785.34
2018-05-25T07:55:47.206Z,101776.19
2018-05-25T07:58:14.744Z,101780.09
2018-05-25T08:00:42.537Z,101773.76
2018-05-25T08:03:10.150Z,101771.77
2018-05-25T08:05:38.218Z,101775.73
2018-05-25T08:08:06.063Z,101772.23
2018-05-25T08:10:34.348Z,101776.80
2018-05-25T08:13:02.068Z,101773.11
2018-05-25T08:15:29.917Z,101773.05
2018-05-25T08:17:57.582Z,101768.51
2018-05-25T08:20:25.268Z,101771.16
2018-05-25T08:22:52.939Z,101779.15
2018-05-25T08:25:20.530Z,101776.45
2018-05-25T08:27:48.068Z,101771.47
2018-05-25T08:30:15.564Z,101772.02
2018-05-25T08:32:43.094Z,101762.83
2018-05-25T08:35:10.643Z,101771.71
2018-05-25T08:37:38.111Z,101761.20
2018-05-25T08:40:05.744Z,101761.25
2018-05-25T08:42:33.778Z,101769.74
2018-05-25T08:45:01.647Z,101764.11
2018-05-25T08:47:30.512Z,101761.11
2018-05-25T08:49:58.288Z,101767.03
2018-05-25T08:52:25.840Z,101761.34
2018-05-25T08:54:53.360Z,101771.42
2018-05-25T08:57:20.883Z,101766.13
2018-05-25T08:59:48.395Z,101764.88
2018-05-25T09:02:15.907Z,101769.01
2018-05-25T09:04:43.412Z,101770.42
2018-05-25T09:07:11.005Z,101766.27
2018-05-25T09:09:38.654Z,101759.90
2018-05-25T09:12:06.224Z,101761.30
2018-05-25T09:14:33.751Z,101763.73
2018-05-25T09:17:01.328Z,101761.45
2018-05-25T09:19:29.012Z,101753.29
2018-05-25T09:21:56.607Z,101754.52
2018-05-25T09:24:24.068Z,101744.98
2018-05-25T09:26:51.604Z,101742.27
2018-05-25T09:29:19.287Z,101744.80
2018-05-25T09:31:46.859Z,101736.89
2018-05-25T09:34:15.160Z,101737.66
2018-05-25T09:36:43.663Z,101735.50
2018-05-25T09:39:11.171Z,101734.17
2018-05-25T09:41:38.729Z,101743.42
2018-05-25T09:44:06.241Z,101743.08
2018-05-25T09:46:33.732Z,101748.55
2018-05-25T09:49:01.308Z,101741.64
2018-05-25T09:51:28.856Z,101740.59
2018-05-25T09:53:56.333Z,101743.81
2018-05-25T09:56:23.832Z,101736.88
2018-05-25T09:58:51.367Z,101732.02
2018-05-25T10:01:18.902Z,101741.44
2018-05-25T10:03:46.427Z,101739.90
2018-05-25T10:06:13.969Z,101738.52
2018-05-25T10:08:41.505Z,101740.95
2018-05-25T10:11:08.967Z,101738.85
2018-05-25T10:13:36.531Z,101737.06
2018-05-25T10:16:04.088Z,101733.12
2018-05-25T10:18:31.593Z,101733.39
2018-05-25T10:20:59.073Z,101736.83
2018-05-25T10:23:26.623Z,101740.88
2018-05-25T10:25:54.174Z,101744.38
2018-05-25T10:28:21.688Z,101743.59
2018-05-25T10:30:49.222Z,101740.91
2018-05-25T10:33:16.799Z,101737.45
2018-05-25T10:35:44.317Z,101731.66
2018-05-25T10:38:11.815Z,101728.38
2018-05-25T10:40:39.348Z,101720.90
2018-05-25T10:43:06.860Z,101723.13
2018-05-25T10:45:34.351Z,101728.00
2018-05-25T10:48:01.893Z,101726.27
2018-05-25T10:50:29.389Z,101729.03
2018-05-25T10:52:56.980Z,101726.31
2018-05-25T10:55:24.502Z,101723.42
2018-05-25T10:57:51.982Z,101720.80
2018-05-25T11:00:19.517Z,101718.41
2018-05-25T11:02:47.007Z,101721.70
2018-05-25T11:05:14.543Z,101717.58
2018-05-25T11:07:42.032Z,101712.98
2018-05-25T11:10:09.570Z,101715.97
2018-05-25T11:12:37.118Z,101712.97
2018-05-25T11:15:04.649Z,101724.47
2018-05-25T11:17:32.135Z,101723.09
2018-05-25T11:19:59.632Z,101717.48
2018-05-25T11:22:27.171Z,101725.05
2018-05-25T11:24:54.663Z,101722.94
2018-05-25T11:27:22.190Z,101711.99
2018-05-25T11:29:49.695Z,101711.20
2018-05-25T11:32:17.298Z,101711.31
2018-05-25T11:34:44.807Z,101703.21
2018-05-25T11:37:12.369Z,101702.23
2018-05-25T11:39:39.896Z,101706.14
2018-05-25T11:42:07.512Z,101702.13
2018-05-25T11:44:35.010Z,101687.05
2018-05-25T11:47:02.502Z,101700.61
2018-05-25T11:49:30.017Z,101690.18
2018-05-25T11:51:57.556Z,101697.34
2018-05-25T11:54:25.080Z,101697.02
2018-05-25T11:56:52.582Z,101689.38
2018-05-25T11:59:20.097Z,101695.05
2018-05-25T12:01:47.659Z,101679.83
2018-05-25T12:04:18.549Z,101691.27
2018-05-25T12:06:46.768Z,101687.11
2018-05-25T12:09:14.297Z,101682.48
2018-05-25T12:11:44.522Z,101682.72
2018-05-25T12:14:15.807Z,101682.44
2018-05-25T12:16:54.856Z,101677.50
2018-05-25T12:19:32.180Z,101667.02
2018-05-25T12:22:01.028Z,101665.22
2018-05-25T12:24:28.519Z,101675.91
2018-05-25T12:26:56.077Z,101666.99
2018-05-25T12:29:23.637Z,101661.03
2018-05-25T12:34:55.289Z,101663.05
2018-05-25T12:37:22.820Z,101654.19
2018-05-25T12:39:53.346Z,101656.47
2018-05-25T12:42:20.861Z,101648.23
2018-05-25T12:45:00.196Z,101666.16
2018-05-25T12:47:27.720Z,101662.52
2018-05-25T12:49:55.201Z,101651.18
2018-05-25T12:52:22.721Z,101657.95
2018-05-25T12:54:50.256Z,101651.83
2018-05-25T12:57:17.752Z,101659.73
2018-05-25T12:59:45.337Z,101653.36
2018-05-25T13:02:12.855Z,101640.40
2018-05-25T13:04:40.395Z,101644.59
2018-05-25T13:07:07.880Z,101640.00
2018-05-25T13:09:35.372Z,101646.68
2018-05-25T13:12:02.868Z,101647.37
2018-05-25T13:14:30.373Z,101651.09
2018-05-25T13:16:57.950Z,101639.57
2018-05-25T13:19:25.467Z,101644.17
2018-05-25T13:21:53.188Z,101636.08
2018-05-25T13:24:20.937Z,101636.46
2018-05-25T13:26:48.466Z,101626.75
2018-05-25T13:29:16.611Z,101636.48
2018-05-25T13:31:44.106Z,101632.78
2018-05-25T13:34:11.621Z,101621.39
2018-05-25T13:36:39.100Z,101614.89
2018-05-25T13:39:06.684Z,101618.62
2018-05-25T13:41:34.153Z,101618.12
2018-05-25T13:44:01.865Z,101620.31
2018-05-25T13:46:29.455Z,101618.09
2018-05-25T13:48:56.956Z,101625.30
2018-05-25T13:51:24.469Z,101619.54
2018-05-25T13:53:51.945Z,101608.86
2018-05-25T13:56:19.441Z,101616.47
2018-05-25T13:58:46.923Z,101610.75
2018-05-25T14:01:14.926Z,101617.62
2018-05-25T14:03:42.403Z,101618.34
2018-05-25T14:06:09.957Z,101613.59
2018-05-25T14:08:37.453Z,101611.94
2018-05-25T14:11:04.977Z,101613.39
2018-05-25T14:13:32.453Z,101606.86
2018-05-25T14:15:59.940Z,101616.37
2018-05-25T14:18:27.433Z,101612.77
2018-05-25T14:20:54.923Z,101621.36
2018-05-25T14:23:22.421Z,101619.42
2018-05-25T14:25:49.910Z,101611.07
2018-05-25T14:28:17.430Z,101615.72
2018-05-25T14:30:45.050Z,101613.47
2018-05-25T14:33:12.554Z,101612.25
2018-05-25T14:35:40.033Z,101597.70
2018-05-25T14:38:07.519Z,101595.52
2018-05-25T14:40:35.041Z,101587.48
2018-05-25T14:43:02.526Z,101593.91
2018-05-25T14:45:30.047Z,101593.03
2018-05-25T14:47:57.510Z,101592.90
2018-05-25T14:50:25.133Z,101589.52
2018-05-25T14:52:52.642Z,101590.48
2018-05-25T14:55:20.134Z,101596.66
2018-05-25T14:57:47.654Z,101595.36
2018-05-25T15:00:15.121Z,101594.53
2018-05-25T15:02:42.667Z,101597.14
2018-05-25T15:05:10.167Z,101591.95
2018-05-25T15:07:37.662Z,101590.34
2018-05-25T15:10:05.161Z,101591.31
2018-05-25T15:12:32.712Z,101587.42
2018-05-25T15:15:00.238Z,101583.20
2018-05-25T15:17:27.754Z,101587.88
2018-05-25T15:19:55.304Z,101580.42
2018-05-25T15:22:22.939Z,101578.25
2018-05-25T15:24:51.037Z,101586.20
2018-05-25T15:27:18.545Z,101591.06
2018-05-25T15:29:46.039Z,101584.33
2018-05-25T15:32:13.559Z,101576.99
2018-05-25T15:34:41.080Z,101576.28
2018-05-25T15:37:08.587Z,101573.64
2018-05-25T15:39:36.101Z,101572.77
2018-05-25T15:42:03.721Z,101570.74
2018-05-25T15:44:31.192Z,101575.14
2018-05-25T15:46:58.698Z,101573.31
2018-05-25T15:49:26.225Z,101568.42
2018-05-25T15:51:53.738Z,101579.30
2018-05-25T15:54:21.245Z,101601.50
2018-05-25T15:56:48.727Z,101578.41
2018-05-25T15:59:16.251Z,101587.39
2018-05-25T16:01:43.725Z,101591.84
2018-05-25T16:04:11.236Z,101590.83
2018-05-25T16:06:38.785Z,101595.22
2018-05-25T16:09:06.274Z,101591.11
2018-05-25T16:11:33.756Z,101589.34
2018-05-25T16:14:01.294Z,101598.42
2018-05-25T16:16:28.767Z,101601.00
2018-05-25T16:18:56.295Z,101598.85
2018-05-25T16:21:23.788Z,101606.80
2018-05-25T16:23:51.270Z,101623.42
2018-05-25T16:26:18.810Z,101607.10
2018-05-25T16:28:46.307Z,101616.07
2018-05-25T16:31:13.853Z,101617.98
2018-05-25T16:33:41.355Z,101617.13
2018-05-25T16:36:08.868Z,101622.09
2018-05-25T16:38:36.345Z,101620.50
2018-05-25T16:41:03.896Z,101604.25
2018-05-25T16:43:31.401Z,101618.75
2018-05-25T16:45:58.943Z,101620.16
2018-05-25T16:48:26.445Z,101617.72
2018-05-25T16:50:53.991Z,101624.31
2018-05-25T16:53:21.500Z,101612.44
2018-05-25T16:55:49.006Z,101629.68
2018-05-25T16:58:16.543Z,101625.05
2018-05-25T17:00:44.044Z,101632.05
2018-05-25T17:03:11.652Z,101633.09
2018-05-25T17:05:39.158Z,101633.64
2018-05-25T17:08:06.706Z,101637.66
2018-05-25T17:10:34.225Z,101637.80
2018-05-25T17:13:01.784Z,101648.34
2018-05-25T17:15:29.271Z,101653.05
2018-05-25T17:17:56.809Z,101648.92
2018-05-25T17:20:24.323Z,101650.77
2018-05-25T17:22:51.858Z,101658.96
2018-05-25T17:25:19.357Z,101661.83
2018-05-25T17:27:46.829Z,101659.45
2018-05-25T17:30:14.461Z,101661.86
2018-05-25T17:32:41.924Z,101667.73
2018-05-25T17:35:09.436Z,101667.70
2018-05-25T17:37:36.990Z,101666.57
2018-05-25T17:40:04.497Z,101670.20
2018-05-25T17:42:31.971Z,101667.16
2018-05-25T17:44:59.500Z,101666.89
2018-05-25T17:47:27.035Z,101665.16
2018-05-25T17:49:54.658Z,101666.40
2018-05-25T17:52:22.191Z,101667.13
2018-05-25T17:54:49.748Z,101673.17
2018-05-25T17:57:17.268Z,101669.38
2018-05-25T17:59:44.893Z,101668.49
2018-05-25T18:02:12.391Z,101673.53
2018-05-25T18:04:39.923Z,101670.97
2018-05-25T18:07:07.415Z,101672.36
2018-05-25T18:09:34.969Z,101683.61
2018-05-25T18:12:02.463Z,101682.24
2018-05-25T18:14:29.972Z,101692.57
2018-05-25T18:16:57.479Z,101683.67
2018-05-25T18:19:24.950Z,101687.77
2018-05-25T18:21:52.467Z,101687.57
2018-05-25T18:24:21.039Z,101693.92
2018-05-25T18:26:48.557Z,101703.17
2018-05-25T18:29:17.122Z,101700.59
2018-05-25T18:31:44.643Z,101709.64
2018-05-25T18:34:13.350Z,101709.06
2018-05-25T18:36:41.837Z,101704.98
2018-05-25T18:39:10.236Z,101707.26
2018-05-25T18:41:37.731Z,101702.31
2018-05-25T18:44:08.021Z,101710.27
2018-05-25T18:46:35.554Z,101709.91
2018-05-25T18:49:03.103Z,101710.56
2018-05-25T18:51:30.640Z,101706.66
2018-05-25T18:54:10.030Z,101704.44
2018-05-25T18:56:38.436Z,101706.45
2018-05-25T18:59:05.984Z,101709.58
2018-05-25T19:01:33.652Z,101723.80
2018-05-25T19:04:06.784Z,101721.44
2018-05-25T19:06:34.309Z,101733.48
2018-05-25T19:09:01.818Z,101732.40
2018-05-25T19:11:29.392Z,101728.79
2018-05-25T19:13:56.943Z,101738.96
2018-05-25T19:16:24.450Z,101743.40
2018-05-25T19:18:52.448Z,101743.20
2018-05-25T19:21:19.960Z,101747.11
2018-05-25T19:23:47.453Z,101753.86
2018-05-25T19:26:14.983Z,101752.52
2018-05-25T19:28:42.484Z,101748.47
2018-05-25T19:31:10.086Z,101754.05
2018-05-25T19:33:37.597Z,101752.92
2018-05-25T19:36:05.122Z,101758.72
2018-05-25T19:38:32.657Z,101762.05
2018-05-25T19:41:00.158Z,101765.16
2018-05-25T19:43:27.679Z,101771.12
2018-05-25T19:45:55.157Z,101773.11
2018-05-25T19:48:22.707Z,101771.36
2018-05-25T19:50:50.235Z,101781.80
2018-05-25T19:53:17.727Z,101784.55
2018-05-25T19:55:45.263Z,101787.00
2018-05-25T19:58:12.802Z,101788.02
2018-05-25T20:00:40.276Z,101779.45
2018-05-25T20:03:07.748Z,101772.01
2018-05-25T20:05:35.287Z,101775.75
2018-05-25T20:08:02.803Z,101776.06
2018-05-25T20:10:30.325Z,101772.87
2018-05-25T20:12:57.800Z,101771.38
2018-05-25T20:15:25.345Z,101775.06
2018-05-25T20:17:52.852Z,101773.70
2018-05-25T20:20:20.371Z,101773.94
2018-05-25T20:22:47.880Z,101779.11
2018-05-25T20:25:15.381Z,101775.14
2018-05-25T20:27:42.885Z,101773.17
2018-05-25T20:30:10.739Z,101777.45
2018-05-25T20:32:38.229Z,101776.78
2018-05-25T20:35:05.804Z,101774.42
2018-05-25T20:37:33.332Z,101778.83
2018-05-25T20:40:00.838Z,101781.83
2018-05-25T20:42:28.416Z,101774.30
2018-05-25T20:44:55.897Z,101776.22
2018-05-25T20:47:23.374Z,101783.89
2018-05-25T20:49:50.899Z,101790.91
2018-05-25T20:52:18.475Z,101792.64
2018-05-25T20:54:46.011Z,101791.84
2018-05-25T20:57:13.489Z,101790.72
2018-05-25T20:59:40.988Z,101792.68
2018-05-25T21:02:08.530Z,101798.70
2018-05-25T21:04:36.018Z,101798.21
2018-05-25T21:07:03.556Z,101804.50
2018-05-25T21:09:31.064Z,101798.59
2018-05-25T21:11:58.651Z,101798.59
2018-05-25T21:14:26.125Z,101798.13
2018-05-25T21:16:53.641Z,101795.18
2018-05-25T21:19:21.157Z,101797.61
2018-05-25T21:21:48.768Z,101797.95
2018-05-25T21:24:16.269Z,101801.38
2018-05-25T21:26:43.790Z,101803.91
2018-05-25T21:29:11.297Z,101808.55
2018-05-25T21:31:38.794Z,101809.64
2018-05-25T21:34:06.274Z,101807.75
2018-05-25T21:36:33.836Z,101809.75
2018-05-25T21:39:01.366Z,101818.84
2018-05-25T21:41:28.863Z,101812.85
2018-05-25T21:43:56.371Z,101815.22
2018-05-25T21:46:23.900Z,101827.05
2018-05-25T21:48:51.437Z,101827.86
2018-05-25T21:51:18.932Z,101825.46
2018-05-25T21:53:46.438Z,101821.20
2018-05-25T21:56:13.915Z,101826.05
2018-05-25T21:58:41.420Z,101822.41
2018-05-25T22:01:09.013Z,101827.28
2018-05-25T22:03:36.494Z,101828.48
2018-05-25T22:06:04.020Z,101822.28
2018-05-25T22:08:31.554Z,101822.93
2018-05-25T22:10:59.193Z,101828.83
2018-05-25T22:13:26.721Z,101825.45
2018-05-25T22:15:54.201Z,101828.29
2018-05-25T22:18:21.718Z,101827.59
2018-05-25T22:20:49.300Z,101827.59
2018-05-25T22:23:16.816Z,101829.39
2018-05-25T22:25:44.456Z,101832.14
2018-05-25T22:28:12.004Z,101839.23
2018-05-25T22:36:41.268Z,101830.50
2018-05-25T22:45:43.152Z,101842.09
2018-05-25T22:48:24.729Z,101842.61
2018-05-25T22:53:59.384Z,101844.64
2018-05-25T22:56:29.861Z,101841.52
2018-05-25T22:58:57.372Z,101839.73
2018-05-25T23:01:24.862Z,101830.20
2018-05-25T23:03:52.485Z,101827.09
2018-05-25T23:06:20.860Z,101829.94
2018-05-25T23:08:48.367Z,101828.16
2018-05-25T23:11:15.850Z,101827.35
2018-05-25T23:13:43.355Z,101827.77
2018-05-25T23:16:10.903Z,101834.00
2018-05-25T23:18:38.454Z,101832.80
2018-05-25T23:21:05.906Z,101826.66
2018-05-25T23:23:33.452Z,101827.59
2018-05-25T23:26:01.661Z,101830.05
2018-05-25T23:28:29.170Z,101828.01
2018-05-25T23:30:56.676Z,101833.98
2018-05-25T23:33:24.148Z,101830.30
2018-05-25T23:35:51.717Z,101822.12
2018-05-25T23:38:20.176Z,101820.86
2018-05-25T23:40:47.679Z,101815.94
2018-05-25T23:43:15.173Z,101825.19
2018-05-25T23:45:42.717Z,101821.40
2018-05-25T23:48:10.221Z,101823.27
2018-05-25T23:50:37.768Z,101824.56
2018-05-25T23:53:05.302Z,101819.92
2018-05-25T23:55:32.790Z,101820.24
2018-05-25T23:58:00.308Z,101822.45
